Terminal Aerodrome Forecast
Issued by NWS Mt. Holly, NJ

Home | Current Version | Previous Version | Text Only | Print | Product List | Glossary On
Versions: 1 2 3 4 5 6 7 8 9 10 11 12 13 14 15 16 17 18 19
000
FTUS41 KPHI 301700
TAFACY
TAF
KACY 301738Z 3018/3118 25007KT P6SM SCT060
      TEMPO 3018/3019 BKN060
     FM302000 19008KT P6SM SCT060
     FM302300 21003KT P6SM FEW250
     FM311500 23008KT P6SM FEW060=

USA.gov is the U.S. government's official web portal to all federal, state and local government web resources and services.